sensor_id;sensor_type;location;lat;lon;timestamp;temperature;humidity
12872;DHT22;6504;53.766;9.626;2022-07-22T00:00:49;18.70;99.90
12872;DHT22;6504;53.766;9.626;2022-07-22T00:03:18;18.60;99.90
12872;DHT22;6504;53.766;9.626;2022-07-22T00:05:53;18.50;99.90
12872;DHT22;6504;53.766;9.626;2022-07-22T00:08:24;18.40;99.90
12872;DHT22;6504;53.766;9.626;2022-07-22T00:10:52;18.30;99.90
12872;DHT22;6504;53.766;9.626;2022-07-22T00:13:20;18.30;99.90
12872;DHT22;6504;53.766;9.626;2022-07-22T00:15:53;18.20;99.90
12872;DHT22;6504;53.766;9.626;2022-07-22T00:18:22;18.30;99.90
12872;DHT22;6504;53.766;9.626;2022-07-22T00:20:53;18.20;99.90
12872;DHT22;6504;53.766;9.626;2022-07-22T00:23:21;18.20;99.90
12872;DHT22;6504;53.766;9.626;2022-07-22T00:25:52;18.20;99.90
12872;DHT22;6504;53.766;9.626;2022-07-22T00:28:21;18.30;99.90
12872;DHT22;6504;53.766;9.626;2022-07-22T00:30:49;18.20;99.90
12872;DHT22;6504;53.766;9.626;2022-07-22T00:33:21;18.20;99.90
12872;DHT22;6504;53.766;9.626;2022-07-22T00:35:50;18.20;99.90
12872;DHT22;6504;53.766;9.626;2022-07-22T00:38:19;18.20;99.90
12872;DHT22;6504;53.766;9.626;2022-07-22T00:40:47;18.20;99.90
12872;DHT22;6504;53.766;9.626;2022-07-22T00:43:17;18.20;99.90
12872;DHT22;6504;53.766;9.626;2022-07-22T00:45:45;18.20;99.90
12872;DHT22;6504;53.766;9.626;2022-07-22T00:48:13;18.20;99.90
12872;DHT22;6504;53.766;9.626;2022-07-22T00:50:43;18.20;99.90
12872;DHT22;6504;53.766;9.626;2022-07-22T00:53:15;18.20;99.90
12872;DHT22;6504;53.766;9.626;2022-07-22T00:55:44;18.20;99.90
12872;DHT22;6504;53.766;9.626;2022-07-22T00:58:12;18.20;99.90
12872;DHT22;6504;53.766;9.626;2022-07-22T01:00:42;18.20;99.90
12872;DHT22;6504;53.766;9.626;2022-07-22T01:03:10;18.20;99.90
12872;DHT22;6504;53.766;9.626;2022-07-22T01:05:38;18.30;99.90
12872;DHT22;6504;53.766;9.626;2022-07-22T01:08:10;18.30;99.90
12872;DHT22;6504;53.766;9.626;2022-07-22T01:10:38;18.30;99.90
12872;DHT22;6504;53.766;9.626;2022-07-22T01:13:06;18.30;99.90
12872;DHT22;6504;53.766;9.626;2022-07-22T01:15:35;18.40;99.90
12872;DHT22;6504;53.766;9.626;2022-07-22T01:18:03;18.40;99.90
12872;DHT22;6504;53.766;9.626;2022-07-22T01:20:34;18.40;99.90
12872;DHT22;6504;53.766;9.626;2022-07-22T01:23:08;18.50;99.90
12872;DHT22;6504;53.766;9.626;2022-07-22T01:25:36;18.50;99.90
12872;DHT22;6504;53.766;9.626;2022-07-22T01:28:06;18.40;99.90
12872;DHT22;6504;53.766;9.626;2022-07-22T01:30:35;18.30;99.90
12872;DHT22;6504;53.766;9.626;2022-07-22T01:33:03;18.30;99.90
12872;DHT22;6504;53.766;9.626;2022-07-22T01:35:32;18.20;99.90
12872;DHT22;6504;53.766;9.626;2022-07-22T01:38:00;18.20;99.90
12872;DHT22;6504;53.766;9.626;2022-07-22T01:40:31;18.30;99.90
12872;DHT22;6504;53.766;9.626;2022-07-22T01:43:00;18.30;99.90
12872;DHT22;6504;53.766;9.626;2022-07-22T01:45:28;18.20;99.90
12872;DHT22;6504;53.766;9.626;2022-07-22T01:47:56;18.20;99.90
12872;DHT22;6504;53.766;9.626;2022-07-22T01:50:24;18.20;99.90
12872;DHT22;6504;53.766;9.626;2022-07-22T01:52:54;18.10;99.90
12872;DHT22;6504;53.766;9.626;2022-07-22T01:55:23;18.10;99.90
12872;DHT22;6504;53.766;9.626;2022-07-22T01:57:51;18.10;99.90
12872;DHT22;6504;53.766;9.626;2022-07-22T02:00:22;18.10;99.90
12872;DHT22;6504;53.766;9.626;2022-07-22T02:02:50;18.10;99.90
12872;DHT22;6504;53.766;9.626;2022-07-22T02:05:18;18.10;99.90
12872;DHT22;6504;53.766;9.626;2022-07-22T02:07:48;18.10;99.90
12872;DHT22;6504;53.766;9.626;2022-07-22T02:10:18;18.10;99.90
12872;DHT22;6504;53.766;9.626;2022-07-22T02:12:46;18.10;99.90
12872;DHT22;6504;53.766;9.626;2022-07-22T02:15:14;18.20;99.90
12872;DHT22;6504;53.766;9.626;2022-07-22T02:17:42;18.20;99.90
12872;DHT22;6504;53.766;9.626;2022-07-22T02:20:13;18.20;99.90
12872;DHT22;6504;53.766;9.626;2022-07-22T02:22:41;18.20;99.90
12872;DHT22;6504;53.766;9.626;2022-07-22T02:25:10;18.20;99.90
12872;DHT22;6504;53.766;9.626;2022-07-22T02:27:42;18.20;99.90
12872;DHT22;6504;53.766;9.626;2022-07-22T02:30:11;18.10;99.90
12872;DHT22;6504;53.766;9.626;2022-07-22T02:32:39;18.10;99.90
12872;DHT22;6504;53.766;9.626;2022-07-22T02:35:08;18.10;99.90
12872;DHT22;6504;53.766;9.626;2022-07-22T02:37:39;18.00;99.90
12872;DHT22;6504;53.766;9.626;2022-07-22T02:40:09;18.00;99.90
12872;DHT22;6504;53.766;9.626;2022-07-22T02:42:37;18.00;99.90
12872;DHT22;6504;53.766;9.626;2022-07-22T02:45:10;17.90;99.90
12872;DHT22;6504;53.766;9.626;2022-07-22T02:47:48;17.90;99.90
12872;DHT22;6504;53.766;9.626;2022-07-22T02:50:16;17.90;99.90
12872;DHT22;6504;53.766;9.626;2022-07-22T02:52:44;17.90;99.90
12872;DHT22;6504;53.766;9.626;2022-07-22T02:55:16;17.90;99.90
12872;DHT22;6504;53.766;9.626;2022-07-22T02:57:45;17.80;99.90
12872;DHT22;6504;53.766;9.626;2022-07-22T03:00:15;17.80;99.90
12872;DHT22;6504;53.766;9.626;2022-07-22T03:02:43;17.80;99.90
12872;DHT22;6504;53.766;9.626;2022-07-22T03:05:11;17.80;99.90
12872;DHT22;6504;53.766;9.626;2022-07-22T03:07:42;17.80;99.90
12872;DHT22;6504;53.766;9.626;2022-07-22T03:10:10;17.80;99.90
12872;DHT22;6504;53.766;9.626;2022-07-22T03:12:38;17.80;99.90
12872;DHT22;6504;53.766;9.626;2022-07-22T03:15:08;17.90;99.90
12872;DHT22;6504;53.766;9.626;2022-07-22T03:17:40;17.90;99.90
12872;DHT22;6504;53.766;9.626;2022-07-22T03:20:09;17.90;99.90
12872;DHT22;6504;53.766;9.626;2022-07-22T03:22:38;17.90;99.90
12872;DHT22;6504;53.766;9.626;2022-07-22T03:25:09;17.90;99.90
12872;DHT22;6504;53.766;9.626;2022-07-22T03:27:37;17.90;99.90
12872;DHT22;6504;53.766;9.626;2022-07-22T03:30:10;18.00;99.90
12872;DHT22;6504;53.766;9.626;2022-07-22T03:32:40;18.00;99.90
12872;DHT22;6504;53.766;9.626;2022-07-22T03:35:11;18.00;99.90
12872;DHT22;6504;53.766;9.626;2022-07-22T03:37:39;18.10;99.90
12872;DHT22;6504;53.766;9.626;2022-07-22T03:40:11;18.10;99.90
12872;DHT22;6504;53.766;9.626;2022-07-22T03:42:40;18.10;99.90
12872;DHT22;6504;53.766;9.626;2022-07-22T03:45:15;18.00;99.90
12872;DHT22;6504;53.766;9.626;2022-07-22T03:47:44;18.10;99.90
12872;DHT22;6504;53.766;9.626;2022-07-22T03:50:13;18.10;99.90
12872;DHT22;6504;53.766;9.626;2022-07-22T03:52:44;18.10;99.90
12872;DHT22;6504;53.766;9.626;2022-07-22T03:55:12;18.10;99.90
12872;DHT22;6504;53.766;9.626;2022-07-22T03:57:43;18.10;99.90
12872;DHT22;6504;53.766;9.626;2022-07-22T04:00:11;18.10;99.90
12872;DHT22;6504;53.766;9.626;2022-07-22T04:02:39;18.10;99.90
12872;DHT22;6504;53.766;9.626;2022-07-22T04:05:11;18.10;99.90
12872;DHT22;6504;53.766;9.626;2022-07-22T04:07:39;18.10;99.90
12872;DHT22;6504;53.766;9.626;2022-07-22T04:10:10;18.00;99.90
12872;DHT22;6504;53.766;9.626;2022-07-22T04:12:39;17.80;99.90
12872;DHT22;6504;53.766;9.626;2022-07-22T04:15:08;17.70;99.90
12872;DHT22;6504;53.766;9.626;2022-07-22T04:17:37;17.60;99.90
12872;DHT22;6504;53.766;9.626;2022-07-22T04:20:06;17.50;99.90
12872;DHT22;6504;53.766;9.626;2022-07-22T04:22:43;17.50;99.90
12872;DHT22;6504;53.766;9.626;2022-07-22T04:25:11;17.60;99.90
12872;DHT22;6504;53.766;9.626;2022-07-22T04:27:42;17.60;99.90
12872;DHT22;6504;53.766;9.626;2022-07-22T04:30:11;17.60;99.90
12872;DHT22;6504;53.766;9.626;2022-07-22T04:32:39;17.60;99.90
12872;DHT22;6504;53.766;9.626;2022-07-22T04:35:10;17.60;99.90
12872;DHT22;6504;53.766;9.626;2022-07-22T04:37:38;17.60;99.90
12872;DHT22;6504;53.766;9.626;2022-07-22T04:40:12;17.50;99.90
12872;DHT22;6504;53.766;9.626;2022-07-22T04:42:40;17.50;99.90
12872;DHT22;6504;53.766;9.626;2022-07-22T04:45:15;17.50;99.90
12872;DHT22;6504;53.766;9.626;2022-07-22T04:47:43;17.50;99.90
12872;DHT22;6504;53.766;9.626;2022-07-22T04:50:11;17.50;99.90
12872;DHT22;6504;53.766;9.626;2022-07-22T04:52:40;17.60;99.90
12872;DHT22;6504;53.766;9.626;2022-07-22T04:55:16;17.60;99.90
12872;DHT22;6504;53.766;9.626;2022-07-22T04:57:45;17.60;99.90
12872;DHT22;6504;53.766;9.626;2022-07-22T05:00:16;17.60;99.90
12872;DHT22;6504;53.766;9.626;2022-07-22T05:02:45;17.60;99.90
12872;DHT22;6504;53.766;9.626;2022-07-22T05:05:14;17.60;99.90
12872;DHT22;6504;53.766;9.626;2022-07-22T05:07:46;17.60;99.90
12872;DHT22;6504;53.766;9.626;2022-07-22T05:10:15;17.70;99.90
12872;DHT22;6504;53.766;9.626;2022-07-22T05:12:47;17.60;99.90
12872;DHT22;6504;53.766;9.626;2022-07-22T05:15:15;17.60;99.90
12872;DHT22;6504;53.766;9.626;2022-07-22T05:17:43;17.70;99.90
12872;DHT22;6504;53.766;9.626;2022-07-22T05:20:12;17.80;99.90
12872;DHT22;6504;53.766;9.626;2022-07-22T05:22:43;17.80;99.90
12872;DHT22;6504;53.766;9.626;2022-07-22T05:25:11;17.80;99.90
12872;DHT22;6504;53.766;9.626;2022-07-22T05:27:49;17.80;99.90
12872;DHT22;6504;53.766;9.626;2022-07-22T05:30:18;17.80;99.90
12872;DHT22;6504;53.766;9.626;2022-07-22T05:32:53;17.80;99.90
12872;DHT22;6504;53.766;9.626;2022-07-22T05:35:21;17.80;99.90
12872;DHT22;6504;53.766;9.626;2022-07-22T05:37:49;17.90;99.90
12872;DHT22;6504;53.766;9.626;2022-07-22T05:40:17;17.80;99.90
12872;DHT22;6504;53.766;9.626;2022-07-22T05:42:53;17.90;99.90
12872;DHT22;6504;53.766;9.626;2022-07-22T05:45:21;17.90;99.90
12872;DHT22;6504;53.766;9.626;2022-07-22T05:47:52;17.90;99.90
12872;DHT22;6504;53.766;9.626;2022-07-22T05:50:38;17.80;99.90
12872;DHT22;6504;53.766;9.626;2022-07-22T05:53:23;17.80;99.90
12872;DHT22;6504;53.766;9.626;2022-07-22T05:56:09;17.80;99.90
12872;DHT22;6504;53.766;9.626;2022-07-22T05:58:57;17.80;99.90
12872;DHT22;6504;53.766;9.626;2022-07-22T06:01:43;17.90;99.90
12872;DHT22;6504;53.766;9.626;2022-07-22T06:04:28;17.80;99.90
12872;DHT22;6504;53.766;9.626;2022-07-22T06:07:14;17.80;99.90
12872;DHT22;6504;53.766;9.626;2022-07-22T06:10:00;17.80;99.90
12872;DHT22;6504;53.766;9.626;2022-07-22T06:12:45;17.80;99.90
12872;DHT22;6504;53.766;9.626;2022-07-22T06:15:35;17.80;99.90
12872;DHT22;6504;53.766;9.626;2022-07-22T06:18:20;17.80;99.90
12872;DHT22;6504;53.766;9.626;2022-07-22T06:21:06;17.80;99.90
12872;DHT22;6504;53.766;9.626;2022-07-22T06:23:52;17.80;99.90
12872;DHT22;6504;53.766;9.626;2022-07-22T06:26:38;17.80;99.90
12872;DHT22;6504;53.766;9.626;2022-07-22T06:29:24;17.70;99.90
12872;DHT22;6504;53.766;9.626;2022-07-22T06:32:11;17.70;99.90
12872;DHT22;6504;53.766;9.626;2022-07-22T06:35:00;17.70;99.90
12872;DHT22;6504;53.766;9.626;2022-07-22T06:37:45;17.70;99.90
12872;DHT22;6504;53.766;9.626;2022-07-22T06:40:31;17.70;99.90
12872;DHT22;6504;53.766;9.626;2022-07-22T06:43:17;17.60;99.90
12872;DHT22;6504;53.766;9.626;2022-07-22T06:46:03;17.60;99.90
12872;DHT22;6504;53.766;9.626;2022-07-22T06:48:50;17.70;99.90
12872;DHT22;6504;53.766;9.626;2022-07-22T06:51:35;17.70;99.90
12872;DHT22;6504;53.766;9.626;2022-07-22T06:54:24;17.60;99.90
12872;DHT22;6504;53.766;9.626;2022-07-22T06:57:10;17.60;99.90
12872;DHT22;6504;53.766;9.626;2022-07-22T06:59:55;17.70;99.90
12872;DHT22;6504;53.766;9.626;2022-07-22T07:02:41;17.70;99.90
12872;DHT22;6504;53.766;9.626;2022-07-22T07:05:28;17.70;99.90
12872;DHT22;6504;53.766;9.626;2022-07-22T07:08:17;17.60;99.90
12872;DHT22;6504;53.766;9.626;2022-07-22T07:11:02;17.70;99.90
12872;DHT22;6504;53.766;9.626;2022-07-22T07:13:48;17.70;99.90
12872;DHT22;6504;53.766;9.626;2022-07-22T07:16:34;17.60;99.90
12872;DHT22;6504;53.766;9.626;2022-07-22T07:19:19;17.70;99.90
12872;DHT22;6504;53.766;9.626;2022-07-22T07:22:06;17.60;99.90
12872;DHT22;6504;53.766;9.626;2022-07-22T07:24:52;17.70;99.90
12872;DHT22;6504;53.766;9.626;2022-07-22T07:27:37;17.70;99.90
12872;DHT22;6504;53.766;9.626;2022-07-22T07:30:25;17.70;99.90
12872;DHT22;6504;53.766;9.626;2022-07-22T07:33:15;17.70;99.90
12872;DHT22;6504;53.766;9.626;2022-07-22T07:36:00;17.80;99.90
12872;DHT22;6504;53.766;9.626;2022-07-22T07:38:47;17.80;99.90
12872;DHT22;6504;53.766;9.626;2022-07-22T07:41:33;17.80;99.90
12872;DHT22;6504;53.766;9.626;2022-07-22T07:44:19;17.80;99.90
12872;DHT22;6504;53.766;9.626;2022-07-22T07:47:04;17.90;99.90
12872;DHT22;6504;53.766;9.626;2022-07-22T07:49:53;18.00;99.90
12872;DHT22;6504;53.766;9.626;2022-07-22T07:52:43;18.10;99.90
12872;DHT22;6504;53.766;9.626;2022-07-22T07:55:33;18.20;99.90
12872;DHT22;6504;53.766;9.626;2022-07-22T07:58:24;18.20;99.90
12872;DHT22;6504;53.766;9.626;2022-07-22T08:01:10;18.20;99.90
12872;DHT22;6504;53.766;9.626;2022-07-22T08:03:55;18.20;99.90
12872;DHT22;6504;53.766;9.626;2022-07-22T08:06:40;18.20;99.90
12872;DHT22;6504;53.766;9.626;2022-07-22T08:09:26;18.20;99.90
12872;DHT22;6504;53.766;9.626;2022-07-22T08:12:13;18.20;99.90
12872;DHT22;6504;53.766;9.626;2022-07-22T08:14:59;18.20;99.90
12872;DHT22;6504;53.766;9.626;2022-07-22T08:17:52;18.30;99.90
12872;DHT22;6504;53.766;9.626;2022-07-22T08:20:38;18.30;99.90
12872;DHT22;6504;53.766;9.626;2022-07-22T08:23:24;18.30;99.90
12872;DHT22;6504;53.766;9.626;2022-07-22T08:26:10;18.30;99.90
12872;DHT22;6504;53.766;9.626;2022-07-22T08:28:56;18.20;99.90
12872;DHT22;6504;53.766;9.626;2022-07-22T08:31:42;18.20;99.90
12872;DHT22;6504;53.766;9.626;2022-07-22T08:34:28;18.20;99.90
12872;DHT22;6504;53.766;9.626;2022-07-22T08:37:19;18.10;99.90
12872;DHT22;6504;53.766;9.626;2022-07-22T08:40:07;18.20;99.90
12872;DHT22;6504;53.766;9.626;2022-07-22T08:42:53;18.10;99.90
12872;DHT22;6504;53.766;9.626;2022-07-22T08:45:40;18.20;99.90
12872;DHT22;6504;53.766;9.626;2022-07-22T08:48:27;18.20;99.90
12872;DHT22;6504;53.766;9.626;2022-07-22T08:51:12;18.20;99.90
12872;DHT22;6504;53.766;9.626;2022-07-22T08:54:04;18.20;99.90
12872;DHT22;6504;53.766;9.626;2022-07-22T08:56:50;18.30;99.90
12872;DHT22;6504;53.766;9.626;2022-07-22T08:59:49;18.30;99.90
12872;DHT22;6504;53.766;9.626;2022-07-22T09:02:38;18.30;99.90
12872;DHT22;6504;53.766;9.626;2022-07-22T09:05:32;18.30;99.90
12872;DHT22;6504;53.766;9.626;2022-07-22T09:08:18;18.30;99.90
12872;DHT22;6504;53.766;9.626;2022-07-22T09:11:15;18.30;99.90
12872;DHT22;6504;53.766;9.626;2022-07-22T09:14:01;18.30;99.90
12872;DHT22;6504;53.766;9.626;2022-07-22T09:16:48;18.20;99.90
12872;DHT22;6504;53.766;9.626;2022-07-22T09:19:35;18.20;99.90
12872;DHT22;6504;53.766;9.626;2022-07-22T09:22:36;18.20;99.90
12872;DHT22;6504;53.766;9.626;2022-07-22T09:25:27;18.20;99.90
12872;DHT22;6504;53.766;9.626;2022-07-22T09:28:18;18.20;99.90
12872;DHT22;6504;53.766;9.626;2022-07-22T09:31:04;18.10;99.90
12872;DHT22;6504;53.766;9.626;2022-07-22T09:33:51;18.20;99.90
12872;DHT22;6504;53.766;9.626;2022-07-22T09:39:32;18.20;99.90
12872;DHT22;6504;53.766;9.626;2022-07-22T09:42:18;18.30;99.90
12872;DHT22;6504;53.766;9.626;2022-07-22T09:45:06;18.30;99.90
12872;DHT22;6504;53.766;9.626;2022-07-22T09:47:56;18.30;99.90
12872;DHT22;6504;53.766;9.626;2022-07-22T09:50:42;18.40;99.90
12872;DHT22;6504;53.766;9.626;2022-07-22T09:53:30;18.40;99.90
12872;DHT22;6504;53.766;9.626;2022-07-22T09:56:18;18.50;99.90
12872;DHT22;6504;53.766;9.626;2022-07-22T09:59:03;18.50;99.90
12872;DHT22;6504;53.766;9.626;2022-07-22T10:01:55;18.50;99.90
12872;DHT22;6504;53.766;9.626;2022-07-22T10:04:45;18.50;99.90
12872;DHT22;6504;53.766;9.626;2022-07-22T10:07:31;18.60;99.90
12872;DHT22;6504;53.766;9.626;2022-07-22T10:10:20;18.60;99.90
12872;DHT22;6504;53.766;9.626;2022-07-22T10:13:09;18.60;99.90
12872;DHT22;6504;53.766;9.626;2022-07-22T10:15:56;18.60;99.90
12872;DHT22;6504;53.766;9.626;2022-07-22T10:18:44;18.70;99.90
12872;DHT22;6504;53.766;9.626;2022-07-22T10:21:31;18.70;99.90
12872;DHT22;6504;53.766;9.626;2022-07-22T10:24:17;18.70;99.90
12872;DHT22;6504;53.766;9.626;2022-07-22T10:27:07;18.70;99.90
12872;DHT22;6504;53.766;9.626;2022-07-22T10:29:55;18.80;99.90
12872;DHT22;6504;53.766;9.626;2022-07-22T10:32:44;18.80;99.90
12872;DHT22;6504;53.766;9.626;2022-07-22T10:35:30;18.80;99.90
12872;DHT22;6504;53.766;9.626;2022-07-22T10:38:16;18.90;99.90
12872;DHT22;6504;53.766;9.626;2022-07-22T10:41:07;18.90;99.90
12872;DHT22;6504;53.766;9.626;2022-07-22T10:43:54;19.00;99.90
12872;DHT22;6504;53.766;9.626;2022-07-22T10:46:49;19.00;99.90
12872;DHT22;6504;53.766;9.626;2022-07-22T10:49:35;19.10;99.90
12872;DHT22;6504;53.766;9.626;2022-07-22T10:52:34;19.20;99.90
12872;DHT22;6504;53.766;9.626;2022-07-22T10:55:21;19.30;99.90
12872;DHT22;6504;53.766;9.626;2022-07-22T10:58:45;19.30;99.90
12872;DHT22;6504;53.766;9.626;2022-07-22T11:01:31;19.40;99.90
12872;DHT22;6504;53.766;9.626;2022-07-22T11:04:23;19.40;99.90
12872;DHT22;6504;53.766;9.626;2022-07-22T11:07:10;19.50;99.90
12872;DHT22;6504;53.766;9.626;2022-07-22T11:10:10;19.50;99.90
12872;DHT22;6504;53.766;9.626;2022-07-22T11:12:56;19.60;99.90
12872;DHT22;6504;53.766;9.626;2022-07-22T11:15:42;19.70;99.90
12872;DHT22;6504;53.766;9.626;2022-07-22T11:18:46;19.80;99.90
12872;DHT22;6504;53.766;9.626;2022-07-22T11:21:34;19.80;99.90
12872;DHT22;6504;53.766;9.626;2022-07-22T11:24:20;19.90;99.90
12872;DHT22;6504;53.766;9.626;2022-07-22T11:27:09;19.90;99.90
12872;DHT22;6504;53.766;9.626;2022-07-22T11:29:56;19.90;99.90
12872;DHT22;6504;53.766;9.626;2022-07-22T11:32:45;19.90;99.90
12872;DHT22;6504;53.766;9.626;2022-07-22T11:35:31;19.90;99.90
12872;DHT22;6504;53.766;9.626;2022-07-22T11:38:18;19.80;99.90
12872;DHT22;6504;53.766;9.626;2022-07-22T11:41:04;19.80;99.90
12872;DHT22;6504;53.766;9.626;2022-07-22T11:43:50;19.70;99.90
12872;DHT22;6504;53.766;9.626;2022-07-22T11:46:38;19.70;99.90
12872;DHT22;6504;53.766;9.626;2022-07-22T11:49:28;19.60;99.90
12872;DHT22;6504;53.766;9.626;2022-07-22T11:52:14;19.50;99.90
12872;DHT22;6504;53.766;9.626;2022-07-22T11:55:01;19.50;99.90
12872;DHT22;6504;53.766;9.626;2022-07-22T11:57:48;19.40;99.90
12872;DHT22;6504;53.766;9.626;2022-07-22T12:00:34;19.40;99.90
12872;DHT22;6504;53.766;9.626;2022-07-22T12:03:20;19.40;99.90
12872;DHT22;6504;53.766;9.626;2022-07-22T12:06:13;19.40;99.90
12872;DHT22;6504;53.766;9.626;2022-07-22T12:09:04;19.40;99.90
12872;DHT22;6504;53.766;9.626;2022-07-22T12:11:52;19.30;99.90
12872;DHT22;6504;53.766;9.626;2022-07-22T12:14:45;19.30;99.90
12872;DHT22;6504;53.766;9.626;2022-07-22T12:17:31;19.30;99.90
12872;DHT22;6504;53.766;9.626;2022-07-22T12:20:16;19.30;99.90
12872;DHT22;6504;53.766;9.626;2022-07-22T12:23:02;19.30;99.90
12872;DHT22;6504;53.766;9.626;2022-07-22T12:25:54;19.40;99.90
12872;DHT22;6504;53.766;9.626;2022-07-22T12:28:41;19.50;99.90
12872;DHT22;6504;53.766;9.626;2022-07-22T12:31:27;19.50;99.90
12872;DHT22;6504;53.766;9.626;2022-07-22T12:34:12;19.50;99.90
12872;DHT22;6504;53.766;9.626;2022-07-22T12:37:10;19.50;99.90
12872;DHT22;6504;53.766;9.626;2022-07-22T12:40:02;19.50;99.90
12872;DHT22;6504;53.766;9.626;2022-07-22T12:43:00;19.60;99.90
12872;DHT22;6504;53.766;9.626;2022-07-22T12:46:02;19.70;99.90
12872;DHT22;6504;53.766;9.626;2022-07-22T12:48:53;19.80;99.90
12872;DHT22;6504;53.766;9.626;2022-07-22T12:51:38;19.90;99.90
12872;DHT22;6504;53.766;9.626;2022-07-22T12:54:24;20.00;99.90
12872;DHT22;6504;53.766;9.626;2022-07-22T12:57:09;19.90;99.90
12872;DHT22;6504;53.766;9.626;2022-07-22T12:59:55;19.70;99.90
12872;DHT22;6504;53.766;9.626;2022-07-22T13:02:42;19.70;99.90
12872;DHT22;6504;53.766;9.626;2022-07-22T13:05:31;19.70;99.90
12872;DHT22;6504;53.766;9.626;2022-07-22T13:08:18;19.60;99.90
12872;DHT22;6504;53.766;9.626;2022-07-22T13:11:04;19.70;99.90
12872;DHT22;6504;53.766;9.626;2022-07-22T13:13:50;19.70;99.90
12872;DHT22;6504;53.766;9.626;2022-07-22T13:16:36;19.80;99.90
12872;DHT22;6504;53.766;9.626;2022-07-22T13:19:23;19.80;99.90
12872;DHT22;6504;53.766;9.626;2022-07-22T13:22:08;19.80;99.90
12872;DHT22;6504;53.766;9.626;2022-07-22T13:24:55;19.80;99.90
12872;DHT22;6504;53.766;9.626;2022-07-22T13:27:41;19.80;99.90
12872;DHT22;6504;53.766;9.626;2022-07-22T13:30:27;19.70;99.90
12872;DHT22;6504;53.766;9.626;2022-07-22T13:33:12;19.70;99.90
12872;DHT22;6504;53.766;9.626;2022-07-22T13:36:03;19.70;99.90
12872;DHT22;6504;53.766;9.626;2022-07-22T13:38:49;19.80;99.90
12872;DHT22;6504;53.766;9.626;2022-07-22T13:41:35;19.80;99.90
12872;DHT22;6504;53.766;9.626;2022-07-22T13:44:21;19.90;99.90
12872;DHT22;6504;53.766;9.626;2022-07-22T13:47:06;19.90;99.90
12872;DHT22;6504;53.766;9.626;2022-07-22T13:49:52;19.90;99.90
12872;DHT22;6504;53.766;9.626;2022-07-22T13:52:39;20.00;99.90
12872;DHT22;6504;53.766;9.626;2022-07-22T13:55:25;20.00;99.90
12872;DHT22;6504;53.766;9.626;2022-07-22T13:58:14;20.10;99.90
12872;DHT22;6504;53.766;9.626;2022-07-22T14:01:00;20.10;99.90
12872;DHT22;6504;53.766;9.626;2022-07-22T14:03:45;20.10;99.90
12872;DHT22;6504;53.766;9.626;2022-07-22T14:06:31;20.10;99.90
12872;DHT22;6504;53.766;9.626;2022-07-22T14:09:18;20.10;99.90
12872;DHT22;6504;53.766;9.626;2022-07-22T14:12:04;20.20;99.90
12872;DHT22;6504;53.766;9.626;2022-07-22T14:14:50;20.20;99.90
12872;DHT22;6504;53.766;9.626;2022-07-22T14:17:36;20.10;99.90
12872;DHT22;6504;53.766;9.626;2022-07-22T14:20:22;20.10;99.90
12872;DHT22;6504;53.766;9.626;2022-07-22T14:23:08;20.00;99.90
12872;DHT22;6504;53.766;9.626;2022-07-22T14:26:00;20.00;99.90
12872;DHT22;6504;53.766;9.626;2022-07-22T14:28:46;20.00;99.90
12872;DHT22;6504;53.766;9.626;2022-07-22T14:31:32;19.90;99.90
12872;DHT22;6504;53.766;9.626;2022-07-22T14:34:17;19.90;99.90
12872;DHT22;6504;53.766;9.626;2022-07-22T14:37:03;19.90;99.90
12872;DHT22;6504;53.766;9.626;2022-07-22T14:39:49;19.90;99.90
12872;DHT22;6504;53.766;9.626;2022-07-22T14:42:38;19.80;99.90
12872;DHT22;6504;53.766;9.626;2022-07-22T14:45:24;19.70;99.90
12872;DHT22;6504;53.766;9.626;2022-07-22T14:48:09;19.70;99.90
12872;DHT22;6504;53.766;9.626;2022-07-22T14:50:57;19.70;99.90
12872;DHT22;6504;53.766;9.626;2022-07-22T14:53:43;19.70;99.90
12872;DHT22;6504;53.766;9.626;2022-07-22T14:56:29;19.70;99.90
12872;DHT22;6504;53.766;9.626;2022-07-22T14:59:16;19.60;99.90
12872;DHT22;6504;53.766;9.626;2022-07-22T15:02:01;19.70;99.90
12872;DHT22;6504;53.766;9.626;2022-07-22T15:04:47;19.70;99.90
12872;DHT22;6504;53.766;9.626;2022-07-22T15:07:35;19.70;99.90
12872;DHT22;6504;53.766;9.626;2022-07-22T15:10:20;19.80;99.90
12872;DHT22;6504;53.766;9.626;2022-07-22T15:13:06;19.80;99.90
12872;DHT22;6504;53.766;9.626;2022-07-22T15:15:53;19.80;99.90
12872;DHT22;6504;53.766;9.626;2022-07-22T15:18:38;19.80;99.90
12872;DHT22;6504;53.766;9.626;2022-07-22T15:21:27;19.80;99.90
12872;DHT22;6504;53.766;9.626;2022-07-22T15:24:13;19.70;99.90
12872;DHT22;6504;53.766;9.626;2022-07-22T15:26:58;19.70;99.90
12872;DHT22;6504;53.766;9.626;2022-07-22T15:29:44;19.70;99.90
12872;DHT22;6504;53.766;9.626;2022-07-22T15:32:31;19.70;99.90
12872;DHT22;6504;53.766;9.626;2022-07-22T15:35:17;19.80;99.90
12872;DHT22;6504;53.766;9.626;2022-07-22T15:38:05;19.70;99.90
12872;DHT22;6504;53.766;9.626;2022-07-22T15:40:51;19.70;99.90
12872;DHT22;6504;53.766;9.626;2022-07-22T15:43:36;19.70;99.90
12872;DHT22;6504;53.766;9.626;2022-07-22T15:46:23;19.60;99.90
12872;DHT22;6504;53.766;9.626;2022-07-22T15:49:10;19.70;99.90
12872;DHT22;6504;53.766;9.626;2022-07-22T15:51:59;19.70;99.90
12872;DHT22;6504;53.766;9.626;2022-07-22T15:54:45;19.70;99.90
12872;DHT22;6504;53.766;9.626;2022-07-22T15:57:30;19.70;99.90
12872;DHT22;6504;53.766;9.626;2022-07-22T16:00:33;19.70;99.90
12872;DHT22;6504;53.766;9.626;2022-07-22T16:03:19;19.70;99.90
12872;DHT22;6504;53.766;9.626;2022-07-22T16:06:07;19.70;99.90
12872;DHT22;6504;53.766;9.626;2022-07-22T16:08:52;19.60;99.90
12872;DHT22;6504;53.766;9.626;2022-07-22T16:11:42;19.60;99.90
12872;DHT22;6504;53.766;9.626;2022-07-22T16:14:31;19.60;99.90
12872;DHT22;6504;53.766;9.626;2022-07-22T16:17:16;19.50;99.90
12872;DHT22;6504;53.766;9.626;2022-07-22T16:20:02;19.50;99.90
12872;DHT22;6504;53.766;9.626;2022-07-22T16:22:51;19.50;99.90
12872;DHT22;6504;53.766;9.626;2022-07-22T16:25:37;19.50;99.90
12872;DHT22;6504;53.766;9.626;2022-07-22T16:28:26;19.40;99.90
12872;DHT22;6504;53.766;9.626;2022-07-22T16:31:11;19.40;99.90
12872;DHT22;6504;53.766;9.626;2022-07-22T16:33:57;19.40;99.90
12872;DHT22;6504;53.766;9.626;2022-07-22T16:36:42;19.40;99.90
12872;DHT22;6504;53.766;9.626;2022-07-22T16:39:29;19.40;99.90
12872;DHT22;6504;53.766;9.626;2022-07-22T16:42:15;19.40;99.90
12872;DHT22;6504;53.766;9.626;2022-07-22T16:45:00;19.40;99.90
12872;DHT22;6504;53.766;9.626;2022-07-22T16:47:49;19.30;99.90
12872;DHT22;6504;53.766;9.626;2022-07-22T16:50:35;19.20;99.90
12872;DHT22;6504;53.766;9.626;2022-07-22T16:53:20;19.20;99.90
12872;DHT22;6504;53.766;9.626;2022-07-22T16:56:07;19.20;99.90
12872;DHT22;6504;53.766;9.626;2022-07-22T16:58:53;19.20;99.90
12872;DHT22;6504;53.766;9.626;2022-07-22T17:01:39;19.10;99.90
12872;DHT22;6504;53.766;9.626;2022-07-22T17:04:24;19.00;99.90
12872;DHT22;6504;53.766;9.626;2022-07-22T17:07:13;19.00;99.90
12872;DHT22;6504;53.766;9.626;2022-07-22T17:09:59;19.00;99.90
12872;DHT22;6504;53.766;9.626;2022-07-22T17:12:46;18.90;99.90
12872;DHT22;6504;53.766;9.626;2022-07-22T17:15:32;18.80;99.90